Time;durP1;ratioP1;P1;durP2;ratioP2;P2;SDS_P1;SDS_P2;PMS_P1;PMS_P2;Temp;Humidity;BMP_temperature;BMP_pressure;BME280_temperature;BME280_humidity;BME280_pressure;Samples;Min_cycle;Max_cycle;Signal;HPM_P1;HPM_P2
2022/06/01 00:02:19;;;;;;;4.50;3.80;;;12.50;99.90;;;;;;5001876;28;20562;-50
2022/06/01 00:04:46;;;;;;;3.70;3.33;;;12.50;99.90;;;;;;5002123;28;20515;-50
2022/06/01 00:07:12;;;;;;;4.60;3.67;;;12.60;99.90;;;;;;4997579;28;20574;-49
2022/06/01 00:09:40;;;;;;;4.23;3.20;;;12.50;99.90;;;;;;5002708;28;20586;-49
2022/06/01 00:12:09;;;;;;;3.97;3.67;;;12.50;99.90;;;;;;5009501;28;20554;-50
2022/06/01 00:14:35;;;;;;;5.53;4.07;;;12.50;99.90;;;;;;5002287;28;20546;-50
2022/06/01 00:17:02;;;;;;;3.93;3.53;;;12.50;99.90;;;;;;5002699;28;20550;-50
2022/06/01 00:19:28;;;;;;;3.70;3.40;;;12.50;99.90;;;;;;5000636;28;20575;-50
2022/06/01 00:22:14;;;;;;;3.83;3.53;;;12.50;99.90;;;;;;4996115;28;20559;-50
2022/06/01 00:24:43;;;;;;;5.50;3.60;;;12.50;99.90;;;;;;4998209;28;20488;-50
2022/06/01 00:27:11;;;;;;;5.87;4.17;;;12.50;99.90;;;;;;5000009;28;20580;-50
2022/06/01 00:29:38;;;;;;;7.23;3.60;;;12.50;99.90;;;;;;5000444;28;20530;-50
2022/06/01 00:32:06;;;;;;;3.57;3.37;;;12.50;99.90;;;;;;5001336;28;20551;-49
2022/06/01 00:34:33;;;;;;;3.43;3.23;;;12.50;99.90;;;;;;5000567;28;20550;-50
2022/06/01 00:37:00;;;;;;;4.57;4.20;;;12.50;99.90;;;;;;5001241;28;20921;-50
2022/06/01 00:39:27;;;;;;;6.70;4.60;;;12.60;99.90;;;;;;4998528;28;20583;-50
2022/06/01 00:41:56;;;;;;;9.07;4.90;;;12.50;99.90;;;;;;4997008;28;20546;-50
2022/06/01 00:44:23;;;;;;;4.57;3.70;;;12.50;99.90;;;;;;5000973;28;20579;-50
2022/06/01 00:46:50;;;;;;;4.50;3.70;;;12.50;99.90;;;;;;5000428;28;20515;-50
2022/06/01 00:49:21;;;;;;;3.77;3.57;;;12.50;99.90;;;;;;5057786;22;20948;-53
2022/06/01 00:51:49;;;;;;;4.33;3.93;;;12.50;99.90;;;;;;5033569;28;20538;-53
2022/06/01 00:54:16;;;;;;;4.87;4.50;;;12.50;99.90;;;;;;5012574;28;20922;-51
2022/06/01 00:56:47;;;;;;;6.40;4.47;;;12.50;99.90;;;;;;5016167;28;20558;-51
2022/06/01 00:59:18;;;;;;;4.17;3.87;;;12.50;99.90;;;;;;5004391;28;20511;-52
2022/06/01 01:01:46;;;;;;;7.90;4.33;;;12.50;99.90;;;;;;5001165;28;20567;-51
2022/06/01 01:04:13;;;;;;;5.03;4.00;;;12.50;99.90;;;;;;5002873;28;20590;-52
2022/06/01 01:06:41;;;;;;;11.80;4.27;;;12.60;99.90;;;;;;5006917;28;20550;-52
2022/06/01 01:09:09;;;;;;;5.90;5.30;;;12.50;99.90;;;;;;5007824;28;20542;-51
2022/06/01 01:11:46;;;;;;;5.63;5.03;;;12.50;99.90;;;;;;5006159;28;20594;-52
2022/06/01 01:14:16;;;;;;;5.20;4.80;;;12.50;99.90;;;;;;5021566;28;20491;-51
2022/06/01 01:16:43;;;;;;;3.90;3.60;;;12.50;99.90;;;;;;5006890;28;20570;-52
2022/06/01 01:19:16;;;;;;;4.80;4.27;;;12.50;99.90;;;;;;5010176;28;20554;-51
2022/06/01 01:21:51;;;;;;;4.23;3.83;;;12.50;99.90;;;;;;5006989;28;20527;-52
2022/06/01 01:24:25;;;;;;;5.07;4.23;;;12.50;99.90;;;;;;5008459;28;20565;-51
2022/06/01 01:26:56;;;;;;;4.50;4.20;;;12.50;99.90;;;;;;5008209;28;20939;-52
2022/06/01 01:29:32;;;;;;;4.83;4.27;;;12.50;99.90;;;;;;5002728;28;20490;-52
2022/06/01 01:31:59;;;;;;;9.93;4.43;;;12.50;99.90;;;;;;5006755;28;20562;-51
2022/06/01 01:34:26;;;;;;;4.37;4.07;;;12.50;99.90;;;;;;5018660;28;20531;-51
2022/06/01 01:36:58;;;;;;;4.00;3.80;;;12.50;99.90;;;;;;5010565;28;20554;-51
2022/06/01 01:39:25;;;;;;;4.60;4.20;;;12.50;99.90;;;;;;5007300;28;20510;-52
2022/06/01 01:41:54;;;;;;;4.07;3.70;;;12.50;99.90;;;;;;5005966;28;20566;-51
2022/06/01 01:44:26;;;;;;;6.00;4.40;;;12.50;99.90;;;;;;5009021;28;20579;-51
2022/06/01 01:46:53;;;;;;;11.53;4.50;;;12.50;99.90;;;;;;5008605;28;20475;-51
2022/06/01 01:49:22;;;;;;;3.93;3.53;;;12.40;99.90;;;;;;5008463;28;21095;-52
2022/06/01 01:51:49;;;;;;;7.00;4.27;;;12.40;99.90;;;;;;5013680;28;20488;-52
2022/06/01 01:54:27;;;;;;;4.13;3.83;;;12.30;99.90;;;;;;5009003;28;20459;-51
2022/06/01 01:57:12;;;;;;;6.90;4.53;;;12.40;99.90;;;;;;5007334;28;20456;-51
2022/06/01 01:59:49;;;;;;;4.07;3.73;;;12.30;99.90;;;;;;5004780;28;20570;-52
2022/06/01 02:02:21;;;;;;;4.40;4.10;;;12.40;99.90;;;;;;5007136;28;20578;-52
2022/06/01 02:07:46;;;;;;;4.30;4.00;;;12.30;99.90;;;;;;5009099;28;20462;-53
2022/06/01 02:12:59;;;;;;;4.07;3.77;;;12.30;99.90;;;;;;5005386;28;20446;-52
2022/06/01 02:15:32;;;;;;;3.93;3.60;;;12.40;99.90;;;;;;5005752;28;21003;-51
2022/06/01 02:18:06;;;;;;;4.17;3.83;;;12.40;99.90;;;;;;5005663;28;20571;-52
2022/06/01 02:20:35;;;;;;;5.80;4.00;;;12.30;99.90;;;;;;5006964;28;20559;-52
2022/06/01 02:23:02;;;;;;;4.27;3.97;;;12.30;99.90;;;;;;5006560;28;20554;-52
2022/06/01 02:25:30;;;;;;;3.63;3.33;;;12.30;99.90;;;;;;5003953;28;20492;-51
2022/06/01 02:28:00;;;;;;;6.00;3.77;;;12.30;99.90;;;;;;5011208;28;20566;-52
2022/06/01 02:30:32;;;;;;;3.87;3.63;;;12.30;99.90;;;;;;5004127;28;20550;-52
2022/06/01 02:33:01;;;;;;;4.10;3.70;;;12.30;99.90;;;;;;5005229;28;20472;-52
2022/06/01 02:35:32;;;;;;;4.43;4.03;;;12.30;99.90;;;;;;5014542;28;20504;-52
2022/06/01 02:38:00;;;;;;;4.07;3.60;;;12.30;99.90;;;;;;5014566;28;20509;-51
2022/06/01 02:40:28;;;;;;;4.43;3.93;;;12.30;99.90;;;;;;5004479;28;20487;-53
2022/06/01 02:42:55;;;;;;;4.17;3.60;;;12.30;99.90;;;;;;5007799;28;20490;-52
2022/06/01 02:45:25;;;;;;;4.50;4.10;;;12.30;99.90;;;;;;5007032;28;20570;-52
2022/06/01 02:47:54;;;;;;;4.50;3.70;;;12.30;99.90;;;;;;5004209;28;21070;-52
2022/06/01 02:50:24;;;;;;;4.97;4.57;;;12.30;99.90;;;;;;5006931;28;21013;-52
2022/06/01 02:52:51;;;;;;;4.10;3.80;;;12.30;99.90;;;;;;5009021;28;20873;-51
2022/06/01 02:55:20;;;;;;;4.27;3.97;;;12.30;99.90;;;;;;5027428;28;20571;-52
2022/06/01 02:57:48;;;;;;;3.80;3.50;;;12.20;99.90;;;;;;5016112;28;20484;-52
2022/06/01 03:00:18;;;;;;;3.57;3.37;;;12.20;99.90;;;;;;5003481;28;20546;-52
2022/06/01 03:02:46;;;;;;;4.30;4.00;;;12.10;99.90;;;;;;5000269;28;20464;-52
2022/06/01 03:05:13;;;;;;;4.57;4.27;;;12.20;99.90;;;;;;5006552;28;20587;-52
2022/06/01 03:07:40;;;;;;;4.13;3.93;;;12.20;99.90;;;;;;5008180;28;20541;-51
2022/06/01 03:10:07;;;;;;;5.07;3.90;;;12.20;99.90;;;;;;5002784;28;20578;-52
2022/06/01 03:12:34;;;;;;;4.03;3.77;;;12.20;99.90;;;;;;5005774;28;20559;-52
2022/06/01 03:15:01;;;;;;;3.70;3.50;;;12.20;99.90;;;;;;5003832;28;20542;-51
2022/06/01 03:17:28;;;;;;;4.07;3.73;;;12.20;99.90;;;;;;5004511;28;20469;-52
2022/06/01 03:19:56;;;;;;;5.27;3.30;;;12.20;99.90;;;;;;5006457;28;20546;-52
2022/06/01 03:22:22;;;;;;;4.63;3.50;;;12.20;99.90;;;;;;5006203;28;20897;-52
2022/06/01 03:24:49;;;;;;;3.60;3.40;;;12.20;99.90;;;;;;5007217;28;20930;-52
2022/06/01 03:27:17;;;;;;;4.27;3.90;;;12.20;99.90;;;;;;5002171;28;20559;-50
2022/06/01 03:29:43;;;;;;;4.77;4.37;;;12.20;99.90;;;;;;5003099;28;20469;-52
2022/06/01 03:32:11;;;;;;;4.00;3.70;;;12.20;99.90;;;;;;5004644;28;20467;-52
2022/06/01 03:34:37;;;;;;;4.60;3.60;;;12.20;99.90;;;;;;5005932;28;21013;-53
2022/06/01 03:37:06;;;;;;;4.10;3.70;;;12.20;99.90;;;;;;5003091;28;20515;-53
2022/06/01 03:39:32;;;;;;;4.20;3.90;;;12.20;99.90;;;;;;5005270;28;20491;-51
2022/06/01 03:41:59;;;;;;;4.60;4.30;;;12.20;99.90;;;;;;5002035;28;21040;-52
2022/06/01 03:47:09;;;;;;;5.00;4.40;;;12.20;99.90;;;;;;4959387;28;20613;-51
2022/06/01 03:49:37;;;;;;;5.00;4.17;;;12.20;99.90;;;;;;5004578;28;20546;-52
2022/06/01 03:52:06;;;;;;;5.77;4.60;;;12.30;99.90;;;;;;5006319;28;20859;-52
2022/06/01 03:54:32;;;;;;;6.40;4.13;;;12.30;99.90;;;;;;5001812;28;20559;-51
2022/06/01 03:56:59;;;;;;;9.17;4.40;;;12.30;99.90;;;;;;5007816;28;20534;-51
2022/06/01 03:59:26;;;;;;;12.30;4.63;;;12.30;99.90;;;;;;5001897;28;20626;-52
2022/06/01 04:01:52;;;;;;;5.00;4.60;;;12.30;99.90;;;;;;5000037;28;20546;-52
2022/06/01 04:04:19;;;;;;;6.07;4.43;;;12.30;99.90;;;;;;5005616;28;20543;-52
2022/06/01 04:06:45;;;;;;;8.43;5.47;;;12.40;99.90;;;;;;4998772;28;21044;-52
2022/06/01 04:09:13;;;;;;;6.63;5.40;;;12.40;99.90;;;;;;5001764;28;20579;-51
2022/06/01 04:11:39;;;;;;;5.75;4.10;;;12.40;99.90;;;;;;5003345;28;20541;-53
2022/06/01 04:14:06;;;;;;;9.93;5.23;;;12.40;99.90;;;;;;5007055;28;20231;-51
2022/06/01 04:16:32;;;;;;;5.80;4.67;;;12.40;99.90;;;;;;5004781;28;21173;-51
2022/06/01 04:18:59;;;;;;;29.17;6.30;;;12.40;99.90;;;;;;5006774;28;20570;-52
2022/06/01 04:21:27;;;;;;;13.10;5.37;;;12.40;99.90;;;;;;5005502;28;21232;-52
2022/06/01 04:23:59;;;;;;;25.67;4.70;;;12.40;99.90;;;;;;4999947;28;20542;-52
2022/06/01 04:26:27;;;;;;;7.03;5.13;;;12.40;99.90;;;;;;5004148;28;20610;-51
2022/06/01 04:28:54;;;;;;;9.30;5.07;;;12.40;99.90;;;;;;5008210;28;20566;-52
2022/06/01 04:31:21;;;;;;;4.63;4.23;;;12.40;99.90;;;;;;5004339;28;20897;-51
2022/06/01 04:33:47;;;;;;;5.47;4.97;;;12.40;99.90;;;;;;5005513;28;20487;-51
2022/06/01 04:36:14;;;;;;;5.03;4.63;;;12.50;99.90;;;;;;5006759;28;20547;-51
2022/06/01 04:38:40;;;;;;;5.40;5.00;;;12.40;99.90;;;;;;5003924;28;20570;-52
2022/06/01 04:41:07;;;;;;;27.87;5.37;;;12.40;99.90;;;;;;5004019;28;21116;-52
2022/06/01 04:43:35;;;;;;;6.43;5.83;;;12.40;99.90;;;;;;5009108;28;20562;-52
2022/06/01 04:46:01;;;;;;;5.73;4.70;;;12.40;99.90;;;;;;5006377;28;20578;-51
2022/06/01 04:48:28;;;;;;;4.63;3.87;;;12.30;99.90;;;;;;5006766;28;20952;-52
2022/06/01 04:50:56;;;;;;;5.30;4.80;;;12.30;99.90;;;;;;5005911;28;20594;-52
2022/06/01 04:53:23;;;;;;;8.10;4.80;;;12.30;99.90;;;;;;5020513;28;20893;-51
2022/06/01 04:55:50;;;;;;;4.50;4.20;;;12.30;99.90;;;;;;5014199;28;20495;-52
2022/06/01 04:58:16;;;;;;;5.40;4.93;;;12.40;99.90;;;;;;5005536;28;20571;-51
2022/06/01 05:00:45;;;;;;;5.37;4.97;;;12.40;99.90;;;;;;5004322;28;20566;-51
2022/06/01 05:03:13;;;;;;;5.90;4.33;;;12.50;99.90;;;;;;5005845;28;20463;-52
2022/06/01 05:05:40;;;;;;;5.37;4.97;;;12.50;99.90;;;;;;5007901;28;20571;-53
2022/06/01 05:08:08;;;;;;;10.00;5.37;;;12.60;99.90;;;;;;5006687;28;21185;-51
2022/06/01 05:10:35;;;;;;;22.60;4.63;;;12.60;99.90;;;;;;5004468;28;20562;-52
2022/06/01 05:13:02;;;;;;;8.40;4.07;;;12.60;99.90;;;;;;5007283;28;20535;-51
2022/06/01 05:15:29;;;;;;;5.07;4.67;;;12.60;99.90;;;;;;5012226;28;20439;-52
2022/06/01 05:17:57;;;;;;;9.17;4.20;;;12.60;99.90;;;;;;5023222;28;20475;-51
2022/06/01 05:20:23;;;;;;;26.70;4.63;;;12.70;99.90;;;;;;5020456;28;20549;-51
2022/06/01 05:22:50;;;;;;;7.13;4.57;;;12.80;90.90;;;;;;5006084;28;20547;-51
2022/06/01 05:25:17;;;;;;;5.47;5.07;;;12.90;29.70;;;;;;5013597;28;21068;-52
2022/06/01 05:27:43;;;;;;;5.00;4.60;;;13.00;56.80;;;;;;5002399;28;21011;-51
2022/06/01 05:30:11;;;;;;;7.40;4.40;;;13.10;66.50;;;;;;5010152;28;20555;-52
2022/06/01 05:32:38;;;;;;;4.27;3.97;;;13.10;79.90;;;;;;5001373;28;20957;-52
2022/06/01 05:35:06;;;;;;;4.97;4.57;;;13.20;99.90;;;;;;5017991;28;20547;-52
2022/06/01 05:37:33;;;;;;;5.93;3.60;;;13.30;99.90;;;;;;5020202;28;20562;-52
2022/06/01 05:39:59;;;;;;;4.70;4.20;;;13.30;99.90;;;;;;5019090;28;20547;-52
2022/06/01 05:42:26;;;;;;;8.20;5.60;;;13.40;99.90;;;;;;5013787;28;20544;-52
2022/06/01 05:44:53;;;;;;;4.83;4.43;;;13.50;99.90;;;;;;5008178;28;20551;-52
2022/06/01 05:47:20;;;;;;;4.00;3.70;;;13.60;99.90;;;;;;5011810;28;20575;-52
2022/06/01 05:49:48;;;;;;;6.03;3.70;;;13.60;99.90;;;;;;5012880;28;20464;-51
2022/06/01 05:52:18;;;;;;;4.30;3.73;;;13.70;99.90;;;;;;5009194;28;20556;-52
2022/06/01 05:54:45;;;;;;;11.03;4.17;;;13.70;99.90;;;;;;5014631;28;20544;-51
2022/06/01 05:57:11;;;;;;;6.20;4.17;;;13.60;99.90;;;;;;5013639;28;20487;-51
2022/06/01 05:59:38;;;;;;;4.87;4.40;;;13.70;99.90;;;;;;5016241;28;20534;-52
2022/06/01 06:02:05;;;;;;;6.20;3.70;;;13.70;99.90;;;;;;5009057;28;20553;-51
2022/06/01 06:04:31;;;;;;;5.57;3.50;;;13.70;99.90;;;;;;5016602;28;20874;-52
2022/06/01 06:06:58;;;;;;;8.33;4.40;;;13.80;99.90;;;;;;5029444;28;20573;-52
2022/06/01 06:09:26;;;;;;;11.87;4.73;;;13.90;99.90;;;;;;5005696;28;21096;-52
2022/06/01 06:11:53;;;;;;;7.00;4.70;;;13.90;99.90;;;;;;5006498;28;20493;-52
2022/06/01 06:14:20;;;;;;;4.93;4.53;;;13.90;99.90;;;;;;5011825;28;20550;-51
2022/06/01 06:16:47;;;;;;;5.17;4.63;;;13.90;99.90;;;;;;5009175;28;20456;-52
2022/06/01 06:19:16;;;;;;;8.87;5.03;;;14.00;99.90;;;;;;5017739;28;20522;-51
2022/06/01 06:21:44;;;;;;;8.40;5.00;;;14.00;99.90;;;;;;5009946;28;20554;-52
2022/06/01 06:24:14;;;;;;;11.67;4.97;;;14.10;99.90;;;;;;5010032;28;20514;-52
2022/06/01 06:26:43;;;;;;;6.67;5.50;;;14.10;99.90;;;;;;5008921;28;20566;-51
2022/06/01 06:29:11;;;;;;;9.80;5.47;;;14.20;99.90;;;;;;5004949;28;20571;-51
2022/06/01 06:31:39;;;;;;;10.70;5.30;;;14.20;99.90;;;;;;5008275;28;20550;-52
2022/06/01 06:34:06;;;;;;;11.20;5.07;;;14.30;99.90;;;;;;5008769;28;20475;-52
2022/06/01 06:36:33;;;;;;;6.83;4.33;;;14.30;99.90;;;;;;5001837;28;21056;-52
2022/06/01 06:38:59;;;;;;;33.33;4.30;;;14.30;99.90;;;;;;4998013;28;20570;-52
2022/06/01 06:41:26;;;;;;;6.77;3.80;;;14.30;99.90;;;;;;5003199;28;20550;-52
2022/06/01 06:43:54;;;;;;;13.20;4.93;;;14.40;99.90;;;;;;5006725;28;20464;-52
2022/06/01 06:46:23;;;;;;;28.03;4.97;;;14.50;99.90;;;;;;5005795;28;20575;-51
2022/06/01 06:48:50;;;;;;;9.13;3.70;;;14.40;99.90;;;;;;4989415;28;21076;-51
2022/06/01 06:51:18;;;;;;;1.83;1.73;;;14.40;99.90;;;;;;4999751;28;21490;-53
2022/06/01 06:53:45;;;;;;;4.50;4.07;;;14.50;99.90;;;;;;5008237;28;20573;-52
2022/06/01 06:56:13;;;;;;;4.37;3.97;;;14.50;99.90;;;;;;5003058;28;20463;-53
2022/06/01 06:58:40;;;;;;;12.60;4.77;;;14.50;99.90;;;;;;5003815;28;20575;-53
2022/06/01 07:01:08;;;;;;;13.13;4.30;;;14.50;99.90;;;;;;4999744;28;20483;-53
2022/06/01 07:03:35;;;;;;;3.33;3.13;;;14.60;99.90;;;;;;5008262;28;20571;-52
2022/06/01 07:06:12;;;;;;;15.70;4.03;;;14.60;99.90;;;;;;5007435;28;20491;-52
2022/06/01 07:08:40;;;;;;;6.00;5.10;;;14.60;99.90;;;;;;5000006;28;20479;-53
2022/06/01 07:11:07;;;;;;;4.90;4.23;;;14.60;99.90;;;;;;5010038;28;20463;-53
2022/06/01 07:13:34;;;;;;;4.67;4.27;;;14.50;99.90;;;;;;5002869;28;21750;-53
2022/06/01 07:16:02;;;;;;;4.90;4.57;;;14.50;99.90;;;;;;4994733;28;20567;-52
2022/06/01 07:18:30;;;;;;;5.13;4.53;;;14.50;99.90;;;;;;4999977;28;22138;-53
2022/06/01 07:20:58;;;;;;;7.30;4.43;;;14.60;99.90;;;;;;5005887;28;20555;-53
2022/06/01 07:23:25;;;;;;;4.37;4.00;;;14.70;99.90;;;;;;5002633;28;20460;-53
2022/06/01 07:25:52;;;;;;;4.60;3.73;;;14.70;77.40;;;;;;5010320;28;20471;-52
2022/06/01 07:28:21;;;;;;;11.13;4.83;;;14.80;99.90;;;;;;5002675;28;20471;-52
2022/06/01 07:30:48;;;;;;;6.53;4.03;;;14.80;99.90;;;;;;5007642;28;20460;-53
2022/06/01 07:33:14;;;;;;;8.30;4.30;;;14.80;74.20;;;;;;5008426;28;20554;-52
2022/06/01 07:35:42;;;;;;;8.00;4.07;;;14.90;99.90;;;;;;5010312;28;20875;-52
2022/06/01 07:43:39;;;;;;;11.13;5.10;;;14.90;99.90;;;;;;5011814;28;20571;-53
2022/06/01 07:46:06;;;;;;;7.80;3.53;;;15.00;99.90;;;;;;5003130;28;20555;-52
2022/06/01 07:48:33;;;;;;;80.77;4.70;;;15.00;99.90;;;;;;4993092;28;20592;-53
2022/06/01 07:51:01;;;;;;;22.53;5.00;;;15.10;99.90;;;;;;4990367;28;20459;-52
2022/06/01 07:53:27;;;;;;;4.03;3.70;;;15.10;99.90;;;;;;5001163;28;20550;-51
2022/06/01 07:55:54;;;;;;;19.30;3.87;;;15.20;99.90;;;;;;5004636;28;20550;-53
2022/06/01 07:58:21;;;;;;;7.00;4.10;;;15.20;99.90;;;;;;5008032;28;20574;-53
2022/06/01 08:00:48;;;;;;;38.33;4.70;;;15.20;99.90;;;;;;4999701;28;20938;-53
2022/06/01 08:03:17;;;;;;;8.03;3.60;;;15.40;99.90;;;;;;5009015;28;20463;-52
2022/06/01 08:05:44;;;;;;;3.63;3.37;;;15.40;99.90;;;;;;5015103;28;20982;-53
2022/06/01 08:08:13;;;;;;;4.93;3.67;;;15.50;99.90;;;;;;4999725;28;20490;-51
2022/06/01 08:10:40;;;;;;;4.10;3.67;;;15.70;99.90;;;;;;5007062;28;20517;-53
2022/06/01 08:13:09;;;;;;;4.30;3.57;;;15.80;29.90;;;;;;4995289;28;20547;-51
2022/06/01 08:15:39;;;;;;;4.13;3.73;;;15.80;43.40;;;;;;4996287;28;20478;-51
2022/06/01 08:18:05;;;;;;;5.83;3.47;;;15.80;38.60;;;;;;4998720;28;20567;-52
2022/06/01 08:20:33;;;;;;;3.30;3.10;;;15.90;51.50;;;;;;5005393;28;21036;-51
2022/06/01 08:23:00;;;;;;;4.17;3.77;;;16.00;42.90;;;;;;5001168;28;20573;-53
2022/06/01 08:25:30;;;;;;;5.20;4.17;;;16.10;49.00;;;;;;5012965;28;20466;-52
2022/06/01 08:27:57;;;;;;;5.07;4.60;;;16.20;65.80;;;;;;5005087;28;20566;-52
2022/06/01 08:30:26;;;;;;;5.17;4.73;;;16.20;69.90;;;;;;4993147;28;20579;-52
2022/06/01 08:32:54;;;;;;;10.70;4.40;;;16.30;65.30;;;;;;5001128;28;20559;-51
2022/06/01 08:35:25;;;;;;;4.20;3.90;;;16.40;64.70;;;;;;5006116;28;20463;-51
2022/06/01 08:37:51;;;;;;;19.73;4.13;;;16.30;76.90;;;;;;5006310;28;20507;-51
2022/06/01 08:40:21;;;;;;;10.30;4.20;;;16.30;74.00;;;;;;5002522;28;20680;-51
2022/06/01 08:42:56;;;;;;;3.53;3.33;;;16.20;70.80;;;;;;5000426;28;20554;-52
2022/06/01 08:45:24;;;;;;;4.37;3.07;;;16.10;74.10;;;;;;5007239;28;20463;-51
2022/06/01 08:47:51;;;;;;;3.90;3.53;;;16.10;68.40;;;;;;5001935;28;20495;-52
2022/06/01 08:50:22;;;;;;;5.50;4.40;;;16.10;51.30;;;;;;5005325;28;20555;-51
2022/06/01 08:52:49;;;;;;;5.33;3.70;;;16.00;70.20;;;;;;5000610;28;20543;-52
2022/06/01 08:55:17;;;;;;;5.90;3.63;;;16.00;68.00;;;;;;4996232;28;22231;-55
2022/06/01 08:57:49;;;;;;;6.77;4.20;;;15.90;71.10;;;;;;5004247;28;20479;-51
2022/06/01 09:00:20;;;;;;;7.77;4.33;;;15.90;58.80;;;;;;5004813;28;20502;-51
2022/06/01 09:02:55;;;;;;;5.10;4.50;;;15.90;58.30;;;;;;5002834;28;20498;-51
2022/06/01 09:05:30;;;;;;;5.70;3.97;;;15.90;61.60;;;;;;5006126;28;20463;-51
2022/06/01 09:08:02;;;;;;;12.43;4.40;;;15.90;58.80;;;;;;5004375;28;20578;-50
2022/06/01 09:10:51;;;;;;;66.97;4.83;;;15.90;59.70;;;;;;5009068;28;20546;-51
2022/06/01 09:13:23;;;;;;;42.80;5.20;;;15.90;56.00;;;;;;5007980;28;20463;-51
2022/06/01 09:15:55;;;;;;;4.73;4.27;;;15.90;49.80;;;;;;5003471;28;20518;-51
2022/06/01 09:18:26;;;;;;;10.40;4.07;;;16.00;51.70;;;;;;5007290;28;20487;-51
2022/06/01 09:23:37;;;;;;;13.47;3.90;;;16.20;55.30;;;;;;5007674;28;20446;-52
2022/06/01 09:26:05;;;;;;;9.77;4.13;;;16.30;64.30;;;;;;5008630;28;20550;-51
2022/06/01 09:28:39;;;;;;;4.97;4.30;;;16.40;74.20;;;;;;5004801;28;20582;-51
2022/06/01 09:31:23;;;;;;;3.50;3.20;;;16.50;83.70;;;;;;5006896;28;20466;-52
2022/06/01 09:33:50;;;;;;;3.93;3.63;;;16.80;80.90;;;;;;5007855;28;21016;-51
2022/06/01 09:36:26;;;;;;;5.13;3.60;;;16.90;99.90;;;;;;5011611;28;20491;-51
2022/06/01 09:38:54;;;;;;;5.90;3.47;;;17.10;99.90;;;;;;5012756;28;20490;-52
2022/06/01 09:41:27;;;;;;;4.80;3.23;;;17.30;99.90;;;;;;5021615;28;20522;-52
2022/06/01 09:43:57;;;;;;;4.87;3.30;;;17.50;99.90;;;;;;5005357;28;20447;-52
2022/06/01 09:46:33;;;;;;;3.40;3.10;;;17.60;99.90;;;;;;5012753;28;20539;-52
2022/06/01 09:49:01;;;;;;;5.10;3.20;;;17.80;99.90;;;;;;5005558;28;20486;-52
2022/06/01 09:51:28;;;;;;;7.80;4.07;;;17.70;99.90;;;;;;5008107;28;20563;-52
2022/06/01 09:54:10;;;;;;;5.70;3.13;;;17.60;99.90;;;;;;5009608;28;20550;-51
2022/06/01 09:56:44;;;;;;;3.57;2.87;;;17.60;99.90;;;;;;5021256;28;20555;-52
2022/06/01 10:07:44;;;;;;;3.97;2.63;;;17.30;99.90;;;;;;5012654;28;20494;-52
2022/06/01 10:10:23;;;;;;;5.60;2.70;;;17.20;99.90;;;;;;5014177;28;20487;-51
2022/06/01 10:12:53;;;;;;;3.43;2.37;;;17.30;99.90;;;;;;5018607;28;20552;-52
2022/06/01 10:15:28;;;;;;;2.50;2.30;;;17.60;99.90;;;;;;5009519;28;20547;-51
2022/06/01 10:18:02;;;;;;;7.43;3.00;;;17.80;99.90;;;;;;5013197;28;20483;-52
2022/06/01 10:20:34;;;;;;;4.90;3.30;;;17.90;99.90;;;;;;5005598;28;20542;-52
2022/06/01 10:23:07;;;;;;;2.60;2.40;;;17.80;99.90;;;;;;5008899;28;20886;-52
2022/06/01 10:25:39;;;;;;;3.83;2.63;;;17.60;99.90;;;;;;5023823;28;20460;-52
2022/06/01 10:28:11;;;;;;;2.90;2.70;;;17.60;99.90;;;;;;5019119;28;20575;-52
2022/06/01 10:30:40;;;;;;;4.03;3.73;;;17.70;99.90;;;;;;5015564;28;21012;-52
2022/06/01 10:33:14;;;;;;;9.97;3.33;;;17.90;99.90;;;;;;5011219;28;20555;-51
2022/06/01 10:35:46;;;;;;;5.13;2.70;;;18.10;99.90;;;;;;5011357;28;20980;-52
2022/06/01 10:38:18;;;;;;;2.93;2.73;;;18.40;99.90;;;;;;5004999;28;20962;-52
2022/06/01 10:40:50;;;;;;;13.50;3.07;;;18.60;99.90;;;;;;5018437;28;20537;-52
2022/06/01 10:43:45;;;;;;;4.33;2.67;;;18.80;99.90;;;;;;5015454;28;20467;-52
2022/06/01 10:46:30;;;;;;;8.07;2.90;;;18.80;99.90;;;;;;4996085;28;20559;-52
2022/06/01 10:49:11;;;;;;;3.07;2.80;;;18.60;99.90;;;;;;5005227;28;20574;-52
2022/06/01 10:51:38;;;;;;;2.17;2.07;;;18.40;99.90;;;;;;5004014;28;20562;-52
2022/06/01 10:54:10;;;;;;;4.13;2.23;;;18.20;99.90;;;;;;5011642;28;20558;-52
2022/06/01 10:56:37;;;;;;;2.33;2.20;;;17.90;99.90;;;;;;5005760;28;20468;-52
2022/06/01 10:59:12;;;;;;;3.43;2.10;;;17.70;99.90;;;;;;5008895;28;20570;-51
2022/06/01 11:01:47;;;;;;;13.10;2.30;;;17.70;99.90;;;;;;5012565;28;20580;-51
2022/06/01 11:04:42;;;;;;;5.60;2.60;;;17.90;99.90;;;;;;5010892;28;20996;-51
2022/06/01 11:07:36;;;;;;;4.60;2.70;;;18.20;99.90;;;;;;5009117;28;20456;-52
2022/06/01 11:10:08;;;;;;;4.80;2.73;;;18.50;99.90;;;;;;5011131;28;20482;-52
2022/06/01 11:12:43;;;;;;;3.43;2.70;;;18.70;99.90;;;;;;5010064;28;20551;-51
2022/06/01 11:15:23;;;;;;;2.60;2.30;;;18.80;99.90;;;;;;5003986;28;20543;-51
2022/06/01 11:17:55;;;;;;;3.43;2.50;;;18.80;99.90;;;;;;5005730;28;20481;-51
2022/06/01 11:20:43;;;;;;;4.67;2.77;;;18.60;99.90;;;;;;5012137;28;20507;-51
2022/06/01 11:23:20;;;;;;;5.23;2.50;;;18.40;99.90;;;;;;5004619;28;20915;-52
2022/06/01 11:25:55;;;;;;;3.37;3.03;;;18.20;99.90;;;;;;5006119;28;20538;-52
2022/06/01 11:28:34;;;;;;;3.30;2.50;;;18.10;99.90;;;;;;5011930;28;20606;-52
2022/06/01 11:31:13;;;;;;;7.40;2.60;;;17.90;99.90;;;;;;5010406;28;20554;-52
2022/06/01 11:33:49;;;;;;;3.80;2.70;;;17.80;99.90;;;;;;5005101;28;20534;-51
2022/06/01 11:36:28;;;;;;;2.60;2.40;;;17.80;99.90;;;;;;5012884;28;20534;-52
2022/06/01 11:39:09;;;;;;;9.70;3.10;;;17.70;99.90;;;;;;5008763;28;21186;-52
2022/06/01 11:41:41;;;;;;;2.90;2.70;;;17.60;99.90;;;;;;4996403;28;20562;-51
2022/06/01 11:44:14;;;;;;;4.70;3.27;;;17.50;99.90;;;;;;5012343;28;20483;-52
2022/06/01 11:46:43;;;;;;;4.33;2.47;;;17.30;99.90;;;;;;5011329;28;20551;-51
2022/06/01 11:49:26;;;;;;;8.20;2.53;;;17.00;99.90;;;;;;4998766;28;20571;-52
2022/06/01 11:51:55;;;;;;;6.83;2.27;;;16.70;99.90;;;;;;5004477;28;20863;-52
2022/06/01 11:54:30;;;;;;;2.30;2.07;;;16.30;99.90;;;;;;5012341;28;20567;-52
2022/06/01 11:57:00;;;;;;;1.70;1.60;;;16.20;99.90;;;;;;5011182;28;20474;-52
2022/06/01 11:59:34;;;;;;;4.60;1.50;;;16.10;99.90;;;;;;5004066;28;21035;-51
2022/06/01 12:02:19;;;;;;;7.63;1.80;;;16.00;99.90;;;;;;5010188;28;20527;-52
2022/06/01 12:04:54;;;;;;;3.80;1.10;;;16.10;99.90;;;;;;5008981;28;21048;-52
2022/06/01 12:07:26;;;;;;;4.13;1.80;;;16.50;99.90;;;;;;5010554;28;20546;-52
2022/06/01 12:10:00;;;;;;;1.27;1.00;;;16.80;99.90;;;;;;5012099;28;20448;-51
2022/06/01 12:12:44;;;;;;;2.07;1.20;;;17.30;99.90;;;;;;5008398;28;20573;-52
2022/06/01 12:15:21;;;;;;;3.30;0.93;;;17.80;99.90;;;;;;5002715;28;20448;-51
2022/06/01 12:18:08;;;;;;;1.43;1.33;;;18.20;99.90;;;;;;5001887;28;20518;-51
2022/06/01 12:20:54;;;;;;;1.83;1.30;;;18.60;99.90;;;;;;5003655;28;20789;-51
2022/06/01 12:29:37;;;;;;;1.97;1.87;;;18.70;99.90;;;;;;5011717;28;21012;-51
2022/06/01 12:32:13;;;;;;;3.00;1.63;;;18.60;99.90;;;;;;5005071;28;20488;-52
2022/06/01 12:34:49;;;;;;;3.97;1.60;;;18.60;99.90;;;;;;5005440;28;20946;-52
2022/06/01 12:37:21;;;;;;;1.83;1.73;;;18.80;99.90;;;;;;5013928;28;20570;-52
2022/06/01 12:39:54;;;;;;;3.37;1.70;;;18.80;99.90;;;;;;5002506;28;20551;-52
2022/06/01 12:42:27;;;;;;;2.20;2.00;;;18.80;99.90;;;;;;5008173;28;20512;-51
2022/06/01 12:44:55;;;;;;;4.53;1.90;;;18.70;99.90;;;;;;5006607;28;20478;-51
2022/06/01 12:47:23;;;;;;;2.07;1.73;;;18.70;99.90;;;;;;5008523;28;20463;-52
2022/06/01 12:49:50;;;;;;;1.97;1.83;;;18.80;99.90;;;;;;5004630;28;20468;-52
2022/06/01 12:52:18;;;;;;;1.90;1.63;;;18.90;99.90;;;;;;5001487;28;20603;-52
2022/06/01 12:54:55;;;;;;;2.43;1.20;;;19.00;99.90;;;;;;5021656;28;20462;-52
2022/06/01 12:57:28;;;;;;;3.40;1.03;;;19.30;99.90;;;;;;5010305;28;20981;-52
2022/06/01 13:00:04;;;;;;;2.03;1.60;;;19.40;99.90;;;;;;5010090;28;20559;-52
2022/06/01 13:02:33;;;;;;;2.10;1.10;;;19.60;99.90;;;;;;5009424;28;21004;-51
2022/06/01 13:05:02;;;;;;;2.97;1.50;;;19.50;99.90;;;;;;5009392;28;20554;-51
2022/06/01 13:07:32;;;;;;;2.03;1.47;;;19.50;99.90;;;;;;5003678;28;20551;-52
2022/06/01 13:10:03;;;;;;;7.20;1.40;;;19.60;99.90;;;;;;5031145;28;20537;-52
2022/06/01 13:12:32;;;;;;;1.57;1.47;;;19.80;99.90;;;;;;5000274;28;20554;-51
2022/06/01 13:15:16;;;;;;;1.67;1.37;;;19.80;99.90;;;;;;5010491;28;20539;-52
2022/06/01 13:17:51;;;;;;;3.50;1.73;;;19.80;99.90;;;;;;5002894;28;20495;-52
2022/06/01 13:20:23;;;;;;;2.37;1.80;;;19.70;99.90;;;;;;5005718;28;20521;-52
2022/06/01 13:22:51;;;;;;;7.37;1.73;;;19.20;99.90;;;;;;5010110;28;21035;-52
2022/06/01 13:25:25;;;;;;;16.90;1.73;;;18.90;99.90;;;;;;5014482;28;20977;-52
2022/06/01 13:27:53;;;;;;;5.67;1.50;;;18.60;99.90;;;;;;5010681;28;20487;-53
2022/06/01 13:30:20;;;;;;;2.00;1.60;;;18.50;99.90;;;;;;5015383;28;20530;-52
2022/06/01 13:32:50;;;;;;;1.47;1.37;;;18.70;99.90;;;;;;5013815;28;20463;-52